sensor_id;sensor_type;location;lat;lon;timestamp;P1;durP1;ratioP1;P2;durP2;ratioP2
61093;SDS011;46976;52.942;6.810;2022-08-19T00:00:45;17.98;;;15.02;;
61093;SDS011;46976;52.942;6.810;2022-08-19T00:03:11;17.65;;;13.57;;
61093;SDS011;46976;52.942;6.810;2022-08-19T00:05:37;16.10;;;13.18;;
61093;SDS011;46976;52.942;6.810;2022-08-19T00:08:05;17.17;;;14.00;;
61093;SDS011;46976;52.942;6.810;2022-08-19T00:10:31;15.95;;;13.35;;
61093;SDS011;46976;52.942;6.810;2022-08-19T00:12:58;15.90;;;12.63;;
61093;SDS011;46976;52.942;6.810;2022-08-19T00:15:24;15.45;;;13.73;;
61093;SDS011;46976;52.942;6.810;2022-08-19T00:17:51;14.93;;;12.43;;
61093;SDS011;46976;52.942;6.810;2022-08-19T00:20:18;14.68;;;12.60;;
61093;SDS011;46976;52.942;6.810;2022-08-19T00:22:45;13.38;;;11.05;;
61093;SDS011;46976;52.942;6.810;2022-08-19T00:25:12;13.05;;;10.40;;
61093;SDS011;46976;52.942;6.810;2022-08-19T00:27:38;13.90;;;11.20;;
61093;SDS011;46976;52.942;6.810;2022-08-19T00:30:05;12.98;;;10.57;;
61093;SDS011;46976;52.942;6.810;2022-08-19T00:32:32;12.55;;;9.65;;
61093;SDS011;46976;52.942;6.810;2022-08-19T00:34:59;12.18;;;9.43;;
61093;SDS011;46976;52.942;6.810;2022-08-19T00:37:26;12.57;;;9.82;;
61093;SDS011;46976;52.942;6.810;2022-08-19T00:39:52;11.65;;;9.43;;
61093;SDS011;46976;52.942;6.810;2022-08-19T00:42:19;13.50;;;9.48;;
61093;SDS011;46976;52.942;6.810;2022-08-19T00:44:45;11.15;;;8.88;;
61093;SDS011;46976;52.942;6.810;2022-08-19T00:47:12;11.15;;;8.85;;
61093;SDS011;46976;52.942;6.810;2022-08-19T00:49:43;12.20;;;9.90;;
61093;SDS011;46976;52.942;6.810;2022-08-19T00:52:14;10.90;;;8.73;;
61093;SDS011;46976;52.942;6.810;2022-08-19T00:54:41;13.13;;;9.93;;
61093;SDS011;46976;52.942;6.810;2022-08-19T00:57:08;12.48;;;10.02;;
61093;SDS011;46976;52.942;6.810;2022-08-19T00:59:35;12.20;;;9.52;;
61093;SDS011;46976;52.942;6.810;2022-08-19T01:02:03;11.65;;;8.90;;
61093;SDS011;46976;52.942;6.810;2022-08-19T01:04:29;14.20;;;9.60;;
61093;SDS011;46976;52.942;6.810;2022-08-19T01:06:56;14.20;;;11.20;;
61093;SDS011;46976;52.942;6.810;2022-08-19T01:09:22;14.70;;;11.85;;
61093;SDS011;46976;52.942;6.810;2022-08-19T01:11:48;14.68;;;11.90;;
61093;SDS011;46976;52.942;6.810;2022-08-19T01:14:14;14.50;;;11.57;;
61093;SDS011;46976;52.942;6.810;2022-08-19T01:16:42;14.52;;;12.32;;
61093;SDS011;46976;52.942;6.810;2022-08-19T01:19:10;14.15;;;11.38;;
61093;SDS011;46976;52.942;6.810;2022-08-19T01:21:40;14.00;;;11.07;;
61093;SDS011;46976;52.942;6.810;2022-08-19T01:24:07;13.30;;;9.93;;
61093;SDS011;46976;52.942;6.810;2022-08-19T01:26:38;11.75;;;8.70;;
61093;SDS011;46976;52.942;6.810;2022-08-19T01:29:04;12.50;;;9.57;;
61093;SDS011;46976;52.942;6.810;2022-08-19T01:31:32;14.27;;;10.95;;
61093;SDS011;46976;52.942;6.810;2022-08-19T01:33:59;12.57;;;10.35;;
61093;SDS011;46976;52.942;6.810;2022-08-19T01:36:30;12.82;;;10.65;;
61093;SDS011;46976;52.942;6.810;2022-08-19T01:38:56;15.75;;;12.98;;
61093;SDS011;46976;52.942;6.810;2022-08-19T01:41:23;15.00;;;12.60;;
61093;SDS011;46976;52.942;6.810;2022-08-19T01:43:50;19.00;;;15.15;;
61093;SDS011;46976;52.942;6.810;2022-08-19T01:46:16;20.90;;;15.40;;
61093;SDS011;46976;52.942;6.810;2022-08-19T01:48:42;18.50;;;14.48;;
61093;SDS011;46976;52.942;6.810;2022-08-19T01:51:09;15.65;;;12.75;;
61093;SDS011;46976;52.942;6.810;2022-08-19T01:53:35;16.85;;;12.93;;
61093;SDS011;46976;52.942;6.810;2022-08-19T01:56:03;15.70;;;12.63;;
61093;SDS011;46976;52.942;6.810;2022-08-19T01:58:35;14.07;;;12.07;;
61093;SDS011;46976;52.942;6.810;2022-08-19T02:01:02;15.02;;;12.05;;
61093;SDS011;46976;52.942;6.810;2022-08-19T02:03:29;15.30;;;12.73;;
61093;SDS011;46976;52.942;6.810;2022-08-19T02:05:56;14.13;;;11.75;;
61093;SDS011;46976;52.942;6.810;2022-08-19T02:08:25;14.70;;;11.95;;
61093;SDS011;46976;52.942;6.810;2022-08-19T02:10:51;15.13;;;11.70;;
61093;SDS011;46976;52.942;6.810;2022-08-19T02:13:17;13.65;;;11.13;;
61093;SDS011;46976;52.942;6.810;2022-08-19T02:15:43;12.93;;;10.57;;
61093;SDS011;46976;52.942;6.810;2022-08-19T02:18:09;12.63;;;9.57;;
61093;SDS011;46976;52.942;6.810;2022-08-19T02:20:36;11.48;;;9.60;;
61093;SDS011;46976;52.942;6.810;2022-08-19T02:23:03;14.02;;;10.52;;
61093;SDS011;46976;52.942;6.810;2022-08-19T02:25:29;10.98;;;8.30;;
61093;SDS011;46976;52.942;6.810;2022-08-19T02:27:55;9.07;;;6.93;;
61093;SDS011;46976;52.942;6.810;2022-08-19T02:30:22;10.05;;;7.22;;
61093;SDS011;46976;52.942;6.810;2022-08-19T02:32:49;10.85;;;7.32;;
61093;SDS011;46976;52.942;6.810;2022-08-19T02:35:16;11.23;;;8.23;;
61093;SDS011;46976;52.942;6.810;2022-08-19T02:37:43;11.35;;;8.90;;
61093;SDS011;46976;52.942;6.810;2022-08-19T02:40:29;13.25;;;9.95;;
61093;SDS011;46976;52.942;6.810;2022-08-19T02:42:59;10.95;;;8.48;;
61093;SDS011;46976;52.942;6.810;2022-08-19T02:45:25;12.05;;;9.02;;
61093;SDS011;46976;52.942;6.810;2022-08-19T02:47:52;14.60;;;10.77;;
61093;SDS011;46976;52.942;6.810;2022-08-19T02:50:18;14.27;;;10.85;;
61093;SDS011;46976;52.942;6.810;2022-08-19T02:52:44;17.30;;;12.98;;
61093;SDS011;46976;52.942;6.810;2022-08-19T02:55:10;17.77;;;13.30;;
61093;SDS011;46976;52.942;6.810;2022-08-19T02:57:36;16.70;;;12.95;;
61093;SDS011;46976;52.942;6.810;2022-08-19T03:00:05;18.27;;;13.88;;
61093;SDS011;46976;52.942;6.810;2022-08-19T03:02:32;17.63;;;13.23;;
61093;SDS011;46976;52.942;6.810;2022-08-19T03:04:58;14.75;;;12.02;;
61093;SDS011;46976;52.942;6.810;2022-08-19T03:07:24;14.55;;;11.48;;
61093;SDS011;46976;52.942;6.810;2022-08-19T03:09:50;13.45;;;10.75;;
61093;SDS011;46976;52.942;6.810;2022-08-19T03:12:16;13.45;;;10.30;;
61093;SDS011;46976;52.942;6.810;2022-08-19T03:14:42;13.63;;;10.07;;
61093;SDS011;46976;52.942;6.810;2022-08-19T03:17:10;13.40;;;11.07;;
61093;SDS011;46976;52.942;6.810;2022-08-19T03:19:37;14.80;;;11.10;;
61093;SDS011;46976;52.942;6.810;2022-08-19T03:22:04;15.63;;;11.23;;
61093;SDS011;46976;52.942;6.810;2022-08-19T03:24:30;20.45;;;14.20;;
61093;SDS011;46976;52.942;6.810;2022-08-19T03:26:57;15.77;;;11.52;;
61093;SDS011;46976;52.942;6.810;2022-08-19T03:29:24;14.50;;;11.23;;
61093;SDS011;46976;52.942;6.810;2022-08-19T03:31:50;17.45;;;11.70;;
61093;SDS011;46976;52.942;6.810;2022-08-19T03:34:26;12.23;;;8.48;;
61093;SDS011;46976;52.942;6.810;2022-08-19T03:36:53;11.73;;;7.28;;
61093;SDS011;46976;52.942;6.810;2022-08-19T03:39:20;13.70;;;7.32;;
61093;SDS011;46976;52.942;6.810;2022-08-19T03:41:46;11.30;;;7.18;;
61093;SDS011;46976;52.942;6.810;2022-08-19T03:44:16;13.57;;;8.00;;
61093;SDS011;46976;52.942;6.810;2022-08-19T03:46:42;12.30;;;8.13;;
61093;SDS011;46976;52.942;6.810;2022-08-19T03:49:09;14.45;;;8.07;;
61093;SDS011;46976;52.942;6.810;2022-08-19T03:51:36;16.70;;;9.23;;
61093;SDS011;46976;52.942;6.810;2022-08-19T03:54:04;12.13;;;7.93;;
61093;SDS011;46976;52.942;6.810;2022-08-19T03:56:30;12.15;;;7.90;;
61093;SDS011;46976;52.942;6.810;2022-08-19T03:58:57;13.00;;;7.63;;
61093;SDS011;46976;52.942;6.810;2022-08-19T04:01:25;13.20;;;8.30;;
61093;SDS011;46976;52.942;6.810;2022-08-19T04:03:51;14.82;;;7.60;;
61093;SDS011;46976;52.942;6.810;2022-08-19T04:06:19;12.82;;;7.63;;
61093;SDS011;46976;52.942;6.810;2022-08-19T04:08:46;13.40;;;9.07;;
61093;SDS011;46976;52.942;6.810;2022-08-19T04:11:14;11.20;;;7.90;;
61093;SDS011;46976;52.942;6.810;2022-08-19T04:13:40;12.10;;;8.80;;
61093;SDS011;46976;52.942;6.810;2022-08-19T04:16:09;13.00;;;9.35;;
61093;SDS011;46976;52.942;6.810;2022-08-19T04:18:35;12.85;;;8.90;;
61093;SDS011;46976;52.942;6.810;2022-08-19T04:21:02;15.38;;;8.65;;
61093;SDS011;46976;52.942;6.810;2022-08-19T04:23:29;10.25;;;7.18;;
61093;SDS011;46976;52.942;6.810;2022-08-19T04:25:55;10.95;;;8.00;;
61093;SDS011;46976;52.942;6.810;2022-08-19T04:28:21;14.60;;;9.75;;
61093;SDS011;46976;52.942;6.810;2022-08-19T04:30:48;13.98;;;9.75;;
61093;SDS011;46976;52.942;6.810;2022-08-19T04:33:16;12.15;;;8.38;;
61093;SDS011;46976;52.942;6.810;2022-08-19T04:35:43;11.63;;;8.40;;
61093;SDS011;46976;52.942;6.810;2022-08-19T04:38:10;10.98;;;7.78;;
61093;SDS011;46976;52.942;6.810;2022-08-19T04:40:40;11.70;;;7.80;;
61093;SDS011;46976;52.942;6.810;2022-08-19T04:43:25;11.98;;;8.40;;
61093;SDS011;46976;52.942;6.810;2022-08-19T04:45:52;11.05;;;8.30;;
61093;SDS011;46976;52.942;6.810;2022-08-19T04:48:18;11.57;;;7.75;;
61093;SDS011;46976;52.942;6.810;2022-08-19T04:50:50;11.05;;;7.40;;
61093;SDS011;46976;52.942;6.810;2022-08-19T04:53:21;14.15;;;8.77;;
61093;SDS011;46976;52.942;6.810;2022-08-19T04:55:48;12.68;;;8.60;;
61093;SDS011;46976;52.942;6.810;2022-08-19T04:58:14;11.15;;;7.97;;
61093;SDS011;46976;52.942;6.810;2022-08-19T05:00:41;13.52;;;8.07;;
61093;SDS011;46976;52.942;6.810;2022-08-19T05:03:07;10.30;;;7.53;;
61093;SDS011;46976;52.942;6.810;2022-08-19T05:05:33;12.05;;;8.23;;
61093;SDS011;46976;52.942;6.810;2022-08-19T05:07:59;12.32;;;8.23;;
61093;SDS011;46976;52.942;6.810;2022-08-19T05:10:25;11.27;;;7.82;;
61093;SDS011;46976;52.942;6.810;2022-08-19T05:12:52;12.07;;;8.63;;
61093;SDS011;46976;52.942;6.810;2022-08-19T05:15:18;15.60;;;10.23;;
61093;SDS011;46976;52.942;6.810;2022-08-19T05:17:44;17.45;;;11.73;;
61093;SDS011;46976;52.942;6.810;2022-08-19T05:20:30;22.52;;;14.57;;
61093;SDS011;46976;52.942;6.810;2022-08-19T05:23:15;18.40;;;13.27;;
61093;SDS011;46976;52.942;6.810;2022-08-19T05:25:42;16.20;;;11.73;;
61093;SDS011;46976;52.942;6.810;2022-08-19T05:28:08;19.45;;;12.95;;
61093;SDS011;46976;52.942;6.810;2022-08-19T05:30:34;19.77;;;12.13;;
61093;SDS011;46976;52.942;6.810;2022-08-19T05:33:00;19.08;;;13.27;;
61093;SDS011;46976;52.942;6.810;2022-08-19T05:35:27;21.85;;;14.68;;
61093;SDS011;46976;52.942;6.810;2022-08-19T05:37:53;21.08;;;15.18;;
61093;SDS011;46976;52.942;6.810;2022-08-19T05:40:19;23.27;;;16.70;;
61093;SDS011;46976;52.942;6.810;2022-08-19T05:42:45;23.67;;;15.38;;
61093;SDS011;46976;52.942;6.810;2022-08-19T05:45:11;25.48;;;17.42;;
61093;SDS011;46976;52.942;6.810;2022-08-19T05:47:37;27.67;;;18.75;;
61093;SDS011;46976;52.942;6.810;2022-08-19T05:50:04;27.98;;;18.67;;
61093;SDS011;46976;52.942;6.810;2022-08-19T05:52:30;29.63;;;20.40;;
61093;SDS011;46976;52.942;6.810;2022-08-19T05:54:56;31.88;;;20.70;;
61093;SDS011;46976;52.942;6.810;2022-08-19T05:57:23;31.98;;;20.95;;
61093;SDS011;46976;52.942;6.810;2022-08-19T05:59:49;31.13;;;21.02;;
61093;SDS011;46976;52.942;6.810;2022-08-19T06:02:16;32.30;;;21.58;;
61093;SDS011;46976;52.942;6.810;2022-08-19T06:04:42;36.95;;;22.27;;
61093;SDS011;46976;52.942;6.810;2022-08-19T06:07:08;40.15;;;24.20;;
61093;SDS011;46976;52.942;6.810;2022-08-19T06:09:35;35.92;;;23.25;;
61093;SDS011;46976;52.942;6.810;2022-08-19T06:12:02;37.03;;;24.38;;
61093;SDS011;46976;52.942;6.810;2022-08-19T06:14:30;35.80;;;23.95;;
61093;SDS011;46976;52.942;6.810;2022-08-19T06:16:57;35.92;;;23.85;;
61093;SDS011;46976;52.942;6.810;2022-08-19T06:19:25;36.20;;;24.23;;
61093;SDS011;46976;52.942;6.810;2022-08-19T06:21:51;34.47;;;23.48;;
61093;SDS011;46976;52.942;6.810;2022-08-19T06:24:19;31.40;;;22.67;;
61093;SDS011;46976;52.942;6.810;2022-08-19T06:26:48;32.00;;;22.30;;
61093;SDS011;46976;52.942;6.810;2022-08-19T06:29:15;31.58;;;22.50;;
61093;SDS011;46976;52.942;6.810;2022-08-19T06:31:44;33.03;;;22.25;;
61093;SDS011;46976;52.942;6.810;2022-08-19T06:34:10;29.95;;;22.73;;
61093;SDS011;46976;52.942;6.810;2022-08-19T06:36:38;29.88;;;22.55;;
61093;SDS011;46976;52.942;6.810;2022-08-19T06:39:07;29.83;;;22.17;;
61093;SDS011;46976;52.942;6.810;2022-08-19T06:41:34;27.95;;;22.30;;
61093;SDS011;46976;52.942;6.810;2022-08-19T06:44:01;30.33;;;21.67;;
61093;SDS011;46976;52.942;6.810;2022-08-19T06:46:27;25.95;;;20.50;;
61093;SDS011;46976;52.942;6.810;2022-08-19T06:48:53;24.48;;;19.45;;
61093;SDS011;46976;52.942;6.810;2022-08-19T06:51:20;23.85;;;19.55;;
61093;SDS011;46976;52.942;6.810;2022-08-19T06:53:47;22.80;;;18.48;;
61093;SDS011;46976;52.942;6.810;2022-08-19T06:56:14;23.75;;;18.50;;
61093;SDS011;46976;52.942;6.810;2022-08-19T06:58:40;20.65;;;17.80;;
61093;SDS011;46976;52.942;6.810;2022-08-19T07:01:07;21.55;;;18.10;;
61093;SDS011;46976;52.942;6.810;2022-08-19T07:03:34;20.25;;;16.60;;
61093;SDS011;46976;52.942;6.810;2022-08-19T07:06:04;20.02;;;15.63;;
61093;SDS011;46976;52.942;6.810;2022-08-19T07:08:31;20.80;;;15.23;;
61093;SDS011;46976;52.942;6.810;2022-08-19T07:11:00;19.13;;;14.68;;
61093;SDS011;46976;52.942;6.810;2022-08-19T07:13:26;18.85;;;14.43;;
61093;SDS011;46976;52.942;6.810;2022-08-19T07:15:52;17.35;;;14.82;;
61093;SDS011;46976;52.942;6.810;2022-08-19T07:18:19;17.20;;;14.02;;
61093;SDS011;46976;52.942;6.810;2022-08-19T07:20:46;18.23;;;14.00;;
61093;SDS011;46976;52.942;6.810;2022-08-19T07:23:13;16.20;;;13.88;;
61093;SDS011;46976;52.942;6.810;2022-08-19T07:25:39;16.38;;;13.95;;
61093;SDS011;46976;52.942;6.810;2022-08-19T07:28:05;15.63;;;12.65;;
61093;SDS011;46976;52.942;6.810;2022-08-19T07:30:36;15.63;;;12.73;;
61093;SDS011;46976;52.942;6.810;2022-08-19T07:33:02;16.75;;;12.88;;
61093;SDS011;46976;52.942;6.810;2022-08-19T07:35:28;15.55;;;12.38;;
61093;SDS011;46976;52.942;6.810;2022-08-19T07:38:00;16.25;;;12.75;;
61093;SDS011;46976;52.942;6.810;2022-08-19T07:40:28;14.40;;;12.60;;
61093;SDS011;46976;52.942;6.810;2022-08-19T07:42:54;14.77;;;12.90;;
61093;SDS011;46976;52.942;6.810;2022-08-19T07:45:20;13.48;;;11.63;;
61093;SDS011;46976;52.942;6.810;2022-08-19T07:47:46;15.15;;;12.57;;
61093;SDS011;46976;52.942;6.810;2022-08-19T07:50:13;14.27;;;11.82;;
61093;SDS011;46976;52.942;6.810;2022-08-19T07:52:39;15.57;;;12.35;;
61093;SDS011;46976;52.942;6.810;2022-08-19T07:55:06;14.25;;;12.13;;
61093;SDS011;46976;52.942;6.810;2022-08-19T07:57:32;16.77;;;12.82;;
61093;SDS011;46976;52.942;6.810;2022-08-19T07:59:58;13.90;;;12.15;;
61093;SDS011;46976;52.942;6.810;2022-08-19T08:02:24;13.00;;;11.10;;
61093;SDS011;46976;52.942;6.810;2022-08-19T08:04:51;14.65;;;11.32;;
61093;SDS011;46976;52.942;6.810;2022-08-19T08:07:36;14.95;;;12.77;;
61093;SDS011;46976;52.942;6.810;2022-08-19T08:10:21;13.55;;;11.75;;
61093;SDS011;46976;52.942;6.810;2022-08-19T08:12:47;14.02;;;11.60;;
61093;SDS011;46976;52.942;6.810;2022-08-19T08:15:14;14.52;;;12.10;;
61093;SDS011;46976;52.942;6.810;2022-08-19T08:17:41;12.80;;;11.38;;
61093;SDS011;46976;52.942;6.810;2022-08-19T08:20:08;13.98;;;11.85;;
61093;SDS011;46976;52.942;6.810;2022-08-19T08:22:34;14.68;;;10.95;;
61093;SDS011;46976;52.942;6.810;2022-08-19T08:25:20;15.80;;;12.18;;
61093;SDS011;46976;52.942;6.810;2022-08-19T08:27:47;13.63;;;10.30;;
61093;SDS011;46976;52.942;6.810;2022-08-19T08:30:19;12.25;;;10.48;;
61093;SDS011;46976;52.942;6.810;2022-08-19T08:32:45;12.25;;;10.95;;
61093;SDS011;46976;52.942;6.810;2022-08-19T08:35:13;12.30;;;10.88;;
61093;SDS011;46976;52.942;6.810;2022-08-19T08:37:39;11.98;;;10.05;;
61093;SDS011;46976;52.942;6.810;2022-08-19T08:40:28;13.48;;;10.82;;
61093;SDS011;46976;52.942;6.810;2022-08-19T08:46:00;12.43;;;9.77;;
61093;SDS011;46976;52.942;6.810;2022-08-19T08:48:30;11.63;;;9.63;;
61093;SDS011;46976;52.942;6.810;2022-08-19T08:50:58;11.45;;;9.52;;
61093;SDS011;46976;52.942;6.810;2022-08-19T08:53:24;10.15;;;7.90;;
61093;SDS011;46976;52.942;6.810;2022-08-19T08:55:51;10.50;;;8.23;;
61093;SDS011;46976;52.942;6.810;2022-08-19T08:58:23;10.70;;;7.30;;
61093;SDS011;46976;52.942;6.810;2022-08-19T09:00:51;11.38;;;8.93;;
61093;SDS011;46976;52.942;6.810;2022-08-19T09:03:19;11.10;;;8.52;;
61093;SDS011;46976;52.942;6.810;2022-08-19T09:06:02;10.45;;;7.68;;
61093;SDS011;46976;52.942;6.810;2022-08-19T09:10:55;9.95;;;7.60;;
61093;SDS011;46976;52.942;6.810;2022-08-19T09:15:54;9.52;;;7.38;;
61093;SDS011;46976;52.942;6.810;2022-08-19T09:18:20;9.07;;;6.50;;
61093;SDS011;46976;52.942;6.810;2022-08-19T09:20:47;9.50;;;7.10;;
61093;SDS011;46976;52.942;6.810;2022-08-19T09:23:13;11.65;;;9.82;;
61093;SDS011;46976;52.942;6.810;2022-08-19T09:25:39;12.77;;;9.85;;
61093;SDS011;46976;52.942;6.810;2022-08-19T09:28:05;10.68;;;8.25;;
61093;SDS011;46976;52.942;6.810;2022-08-19T09:30:38;11.07;;;9.02;;
61093;SDS011;46976;52.942;6.810;2022-08-19T09:33:05;12.55;;;9.57;;
61093;SDS011;46976;52.942;6.810;2022-08-19T09:35:32;10.98;;;9.23;;
61093;SDS011;46976;52.942;6.810;2022-08-19T09:37:59;11.27;;;8.38;;
61093;SDS011;46976;52.942;6.810;2022-08-19T09:40:28;10.43;;;8.70;;
61093;SDS011;46976;52.942;6.810;2022-08-19T09:42:55;10.88;;;8.80;;
61093;SDS011;46976;52.942;6.810;2022-08-19T09:45:22;10.85;;;7.55;;
61093;SDS011;46976;52.942;6.810;2022-08-19T09:47:49;12.90;;;9.48;;
61093;SDS011;46976;52.942;6.810;2022-08-19T09:50:16;10.65;;;7.35;;
61093;SDS011;46976;52.942;6.810;2022-08-19T09:52:43;10.90;;;8.85;;
61093;SDS011;46976;52.942;6.810;2022-08-19T09:55:10;10.18;;;7.40;;
61093;SDS011;46976;52.942;6.810;2022-08-19T09:57:36;10.15;;;7.10;;
61093;SDS011;46976;52.942;6.810;2022-08-19T10:00:04;10.00;;;7.00;;
61093;SDS011;46976;52.942;6.810;2022-08-19T10:02:31;9.25;;;6.72;;
61093;SDS011;46976;52.942;6.810;2022-08-19T10:04:57;9.23;;;6.68;;
61093;SDS011;46976;52.942;6.810;2022-08-19T10:07:42;11.50;;;9.40;;
61093;SDS011;46976;52.942;6.810;2022-08-19T10:10:08;9.40;;;7.35;;
61093;SDS011;46976;52.942;6.810;2022-08-19T10:12:34;10.15;;;7.25;;
61093;SDS011;46976;52.942;6.810;2022-08-19T10:15:02;10.27;;;8.13;;
61093;SDS011;46976;52.942;6.810;2022-08-19T10:17:28;9.73;;;7.72;;
61093;SDS011;46976;52.942;6.810;2022-08-19T10:19:54;10.68;;;7.75;;
61093;SDS011;46976;52.942;6.810;2022-08-19T10:22:20;9.30;;;7.53;;
61093;SDS011;46976;52.942;6.810;2022-08-19T10:24:46;11.77;;;7.10;;
61093;SDS011;46976;52.942;6.810;2022-08-19T10:27:12;10.07;;;7.28;;
61093;SDS011;46976;52.942;6.810;2022-08-19T10:29:39;9.80;;;6.50;;
61093;SDS011;46976;52.942;6.810;2022-08-19T10:32:06;10.02;;;6.80;;
61093;SDS011;46976;52.942;6.810;2022-08-19T10:34:33;8.98;;;6.35;;
61093;SDS011;46976;52.942;6.810;2022-08-19T10:37:00;9.40;;;7.37;;
61093;SDS011;46976;52.942;6.810;2022-08-19T10:39:26;13.00;;;6.93;;
61093;SDS011;46976;52.942;6.810;2022-08-19T10:41:55;10.27;;;7.10;;
61093;SDS011;46976;52.942;6.810;2022-08-19T10:44:22;9.68;;;7.35;;
61093;SDS011;46976;52.942;6.810;2022-08-19T10:46:48;10.07;;;7.53;;
61093;SDS011;46976;52.942;6.810;2022-08-19T10:49:15;10.43;;;9.20;;
61093;SDS011;46976;52.942;6.810;2022-08-19T10:51:41;9.30;;;7.13;;
61093;SDS011;46976;52.942;6.810;2022-08-19T10:54:26;9.00;;;7.53;;
61093;SDS011;46976;52.942;6.810;2022-08-19T10:57:12;9.30;;;7.43;;
61093;SDS011;46976;52.942;6.810;2022-08-19T10:59:38;10.55;;;7.93;;
61093;SDS011;46976;52.942;6.810;2022-08-19T11:02:05;9.30;;;6.32;;
61093;SDS011;46976;52.942;6.810;2022-08-19T11:04:32;9.40;;;7.15;;
61093;SDS011;46976;52.942;6.810;2022-08-19T11:06:58;8.80;;;6.55;;
61093;SDS011;46976;52.942;6.810;2022-08-19T11:09:25;10.48;;;7.65;;
61093;SDS011;46976;52.942;6.810;2022-08-19T11:11:54;8.35;;;6.20;;
61093;SDS011;46976;52.942;6.810;2022-08-19T11:14:21;10.70;;;7.13;;
61093;SDS011;46976;52.942;6.810;2022-08-19T11:16:50;9.73;;;7.43;;
61093;SDS011;46976;52.942;6.810;2022-08-19T11:19:17;10.00;;;6.50;;
61093;SDS011;46976;52.942;6.810;2022-08-19T11:21:45;10.10;;;7.18;;
61093;SDS011;46976;52.942;6.810;2022-08-19T11:24:13;9.18;;;6.43;;
61093;SDS011;46976;52.942;6.810;2022-08-19T11:26:40;8.88;;;6.88;;
61093;SDS011;46976;52.942;6.810;2022-08-19T11:29:07;10.23;;;8.20;;
61093;SDS011;46976;52.942;6.810;2022-08-19T11:31:38;8.77;;;6.95;;
61093;SDS011;46976;52.942;6.810;2022-08-19T11:34:05;9.45;;;6.68;;
61093;SDS011;46976;52.942;6.810;2022-08-19T11:36:32;9.52;;;6.82;;
61093;SDS011;46976;52.942;6.810;2022-08-19T11:38:59;10.00;;;8.35;;
61093;SDS011;46976;52.942;6.810;2022-08-19T11:41:25;8.73;;;6.57;;
61093;SDS011;46976;52.942;6.810;2022-08-19T11:43:52;9.85;;;6.97;;
61093;SDS011;46976;52.942;6.810;2022-08-19T11:46:20;8.70;;;5.65;;
61093;SDS011;46976;52.942;6.810;2022-08-19T11:48:47;7.95;;;6.10;;
61093;SDS011;46976;52.942;6.810;2022-08-19T11:53:41;8.20;;;5.47;;
61093;SDS011;46976;52.942;6.810;2022-08-19T11:56:07;9.23;;;6.13;;
61093;SDS011;46976;52.942;6.810;2022-08-19T11:58:33;9.23;;;6.40;;
61093;SDS011;46976;52.942;6.810;2022-08-19T12:01:00;9.17;;;6.33;;
61093;SDS011;46976;52.942;6.810;2022-08-19T12:03:26;8.77;;;6.50;;
61093;SDS011;46976;52.942;6.810;2022-08-19T12:05:52;7.72;;;6.15;;
61093;SDS011;46976;52.942;6.810;2022-08-19T12:08:19;8.25;;;6.20;;
61093;SDS011;46976;52.942;6.810;2022-08-19T12:10:45;8.40;;;5.40;;
61093;SDS011;46976;52.942;6.810;2022-08-19T12:13:12;9.40;;;6.40;;
61093;SDS011;46976;52.942;6.810;2022-08-19T12:15:43;8.88;;;5.38;;
61093;SDS011;46976;52.942;6.810;2022-08-19T12:18:10;8.85;;;5.68;;
61093;SDS011;46976;52.942;6.810;2022-08-19T12:20:39;7.20;;;5.00;;
61093;SDS011;46976;52.942;6.810;2022-08-19T12:23:06;7.70;;;5.32;;
61093;SDS011;46976;52.942;6.810;2022-08-19T12:25:33;8.38;;;5.75;;
61093;SDS011;46976;52.942;6.810;2022-08-19T12:27:59;8.85;;;7.05;;
61093;SDS011;46976;52.942;6.810;2022-08-19T12:30:25;9.50;;;6.00;;
61093;SDS011;46976;52.942;6.810;2022-08-19T12:32:51;9.50;;;6.32;;
61093;SDS011;46976;52.942;6.810;2022-08-19T12:35:18;8.93;;;5.90;;
61093;SDS011;46976;52.942;6.810;2022-08-19T12:37:47;9.25;;;5.60;;
61093;SDS011;46976;52.942;6.810;2022-08-19T12:40:14;8.15;;;5.47;;
61093;SDS011;46976;52.942;6.810;2022-08-19T12:42:41;8.95;;;5.90;;
61093;SDS011;46976;52.942;6.810;2022-08-19T12:45:09;9.63;;;6.77;;
61093;SDS011;46976;52.942;6.810;2022-08-19T12:47:35;7.72;;;5.63;;
61093;SDS011;46976;52.942;6.810;2022-08-19T12:50:02;9.10;;;6.53;;
61093;SDS011;46976;52.942;6.810;2022-08-19T12:52:32;9.45;;;7.22;;
61093;SDS011;46976;52.942;6.810;2022-08-19T12:54:58;9.05;;;6.07;;
61093;SDS011;46976;52.942;6.810;2022-08-19T12:57:25;8.55;;;6.28;;
61093;SDS011;46976;52.942;6.810;2022-08-19T12:59:53;9.38;;;7.10;;
61093;SDS011;46976;52.942;6.810;2022-08-19T13:02:19;8.35;;;6.05;;
61093;SDS011;46976;52.942;6.810;2022-08-19T13:04:46;7.97;;;5.30;;
61093;SDS011;46976;52.942;6.810;2022-08-19T13:07:12;8.77;;;5.20;;
61093;SDS011;46976;52.942;6.810;2022-08-19T13:09:38;7.65;;;5.50;;
61093;SDS011;46976;52.942;6.810;2022-08-19T13:12:07;10.07;;;6.00;;
61093;SDS011;46976;52.942;6.810;2022-08-19T13:14:38;8.18;;;4.53;;
61093;SDS011;46976;52.942;6.810;2022-08-19T13:17:05;7.50;;;4.10;;
61093;SDS011;46976;52.942;6.810;2022-08-19T13:19:31;7.05;;;3.90;;
61093;SDS011;46976;52.942;6.810;2022-08-19T13:21:58;6.53;;;3.80;;
61093;SDS011;46976;52.942;6.810;2022-08-19T13:24:24;6.97;;;3.70;;
61093;SDS011;46976;52.942;6.810;2022-08-19T13:26:50;7.13;;;4.40;;
61093;SDS011;46976;52.942;6.810;2022-08-19T13:29:16;7.40;;;4.13;;
61093;SDS011;46976;52.942;6.810;2022-08-19T13:32:01;7.63;;;4.38;;
61093;SDS011;46976;52.942;6.810;2022-08-19T13:34:46;7.40;;;4.30;;
61093;SDS011;46976;52.942;6.810;2022-08-19T13:37:12;7.47;;;3.97;;
61093;SDS011;46976;52.942;6.810;2022-08-19T13:39:38;6.90;;;3.85;;
61093;SDS011;46976;52.942;6.810;2022-08-19T13:42:04;5.75;;;2.80;;
61093;SDS011;46976;52.942;6.810;2022-08-19T13:44:32;5.93;;;3.35;;
61093;SDS011;46976;52.942;6.810;2022-08-19T13:47:02;6.68;;;3.42;;
61093;SDS011;46976;52.942;6.810;2022-08-19T13:49:31;6.47;;;3.60;;
61093;SDS011;46976;52.942;6.810;2022-08-19T13:51:57;7.03;;;3.92;;
61093;SDS011;46976;52.942;6.810;2022-08-19T13:54:23;7.38;;;3.60;;
61093;SDS011;46976;52.942;6.810;2022-08-19T13:56:49;6.20;;;3.80;;
61093;SDS011;46976;52.942;6.810;2022-08-19T13:59:15;6.68;;;3.58;;
61093;SDS011;46976;52.942;6.810;2022-08-19T14:01:42;6.67;;;3.70;;
61093;SDS011;46976;52.942;6.810;2022-08-19T14:04:08;7.63;;;3.92;;
61093;SDS011;46976;52.942;6.810;2022-08-19T14:06:34;7.25;;;4.18;;
61093;SDS011;46976;52.942;6.810;2022-08-19T14:09:01;7.60;;;4.25;;
61093;SDS011;46976;52.942;6.810;2022-08-19T14:11:27;8.60;;;4.85;;
61093;SDS011;46976;52.942;6.810;2022-08-19T14:13:53;7.97;;;5.38;;
61093;SDS011;46976;52.942;6.810;2022-08-19T14:16:19;8.85;;;4.90;;
61093;SDS011;46976;52.942;6.810;2022-08-19T14:18:46;8.38;;;5.35;;
61093;SDS011;46976;52.942;6.810;2022-08-19T14:21:17;7.22;;;4.30;;
61093;SDS011;46976;52.942;6.810;2022-08-19T14:23:43;8.25;;;5.25;;
61093;SDS011;46976;52.942;6.810;2022-08-19T14:26:11;9.32;;;5.55;;
61093;SDS011;46976;52.942;6.810;2022-08-19T14:28:37;9.63;;;5.95;;
61093;SDS011;46976;52.942;6.810;2022-08-19T14:31:05;11.30;;;8.02;;
61093;SDS011;46976;52.942;6.810;2022-08-19T14:33:32;12.10;;;9.35;;
61093;SDS011;46976;52.942;6.810;2022-08-19T14:35:58;17.40;;;9.60;;
61093;SDS011;46976;52.942;6.810;2022-08-19T14:38:25;15.02;;;10.45;;
61093;SDS011;46976;52.942;6.810;2022-08-19T14:40:51;12.90;;;9.55;;
61093;SDS011;46976;52.942;6.810;2022-08-19T14:43:18;14.07;;;9.55;;
61093;SDS011;46976;52.942;6.810;2022-08-19T14:45:44;14.50;;;11.43;;